Vh-npc — VH-NPC — position and weather

sailwx.info

Track history (hours):
 
Tides and Currents Weather Stations Pressure Air Temp Water Temp Dewpoint Dewpoint Depression Visibility Wind Speed Wind Dir Waves Ship Positions

Vh-npc

Last reported at 2017-Oct-22 00:55 UTC. Time now 2017-Oct-22 06:40 UTC.
Position S 32°55' E 151°46'.

Length 10 m.

Type: Pilot. MMSI: 111503020.

Date/timePositionNaut miles runAvg speedWind from/ knotsBaromVisibWave heightAir tempDewpointWater temp
2017-Oct-22 00:55S 32°55' E 151°46'0 0.0
2017-Oct-21 18:18S 32°55' E 151°47'0 0.0
2017-Oct-21 17:05S 32°55' E 151°47'452.9
2017-Oct-21 17:01S 32°57' E 151°51'4 0.7
2017-Oct-21 11:03S 32°55' E 151°47'249.1
2017-Oct-21 11:01S 32°55' E 151°49'2 0.8
2017-Oct-21 08:02S 32°55' E 151°46'267.5
2017-Oct-21 08:01S 32°53' E 151°47'3 4.9
2017-Oct-21 07:28S 32°55' E 151°49'2 0.5
2017-Oct-21 02:58S 32°55' E 151°46'0 0.0
2017-Oct-20 23:26S 32°55' E 151°47'0 0.1
2017-Oct-20 20:00S 32°55' E 151°46'0 0.0
2017-Oct-20 02:02S 32°55' E 151°46'263.3
2017-Oct-20 02:01S 32°54' E 151°47'2 1.2
2017-Oct-20 00:34S 32°55' E 151°46'350.8
2017-Oct-20 00:31S 32°56' E 151°50'3 3.1
2017-Oct-19 23:34S 32°55' E 151°46'358.4
2017-Oct-19 23:31S 32°56' E 151°50'3 0.7
2017-Oct-19 19:03S 32°55' E 151°47'238.3
2017-Oct-19 19:01S 32°54' E 151°48'2 0.5
2017-Oct-19 15:21S 32°55' E 151°46'0 0.1
2017-Oct-19 14:06S 32°55' E 151°46'536.1
2017-Oct-19 13:57S 32°58' E 151°51'5 1.6
2017-Oct-19 10:40S 32°55' E 151°46'635.4
2017-Oct-19 10:30S 32°59' E 151°51'5 1.8
2017-Oct-19 07:28S 32°55' E 151°46'1 1.0
2017-Oct-19 06:57S 32°55' E 151°46'1 0.1
2017-Oct-18 19:15S 32°55' E 151°46'415.1
2017-Oct-18 19:01S 32°58' E 151°49'4 2.4
2017-Oct-18 17:22S 32°55' E 151°46'0 0.0
2017-Oct-18 16:10S 32°55' E 151°46'1063.0
2017-Oct-18 16:01S 32°53' E 151°58'917.9
2017-Oct-18 15:31S 32°57' E 151°48'2 0.4
2017-Oct-18 09:33S 32°55' E 151°46'244.9
2017-Oct-18 09:31S 32°54' E 151°49'3 6.8
2017-Oct-18 09:01S 32°57' E 151°51'4 0.8
2017-Oct-18 03:07S 32°55' E 151°46'218.5
2017-Oct-18 03:00S 32°55' E 151°49'2 0.6
2017-Oct-17 23:30S 32°55' E 151°46'4 7.9
2017-Oct-17 23:01S 32°57' E 151°50'4 0.7
2017-Oct-17 17:08S 32°55' E 151°46'435.0
2017-Oct-17 17:00S 32°57' E 151°51'5 0.9
2017-Oct-17 12:00S 32°55' E 151°46'3 6.4
2017-Oct-17 11:30S 32°57' E 151°48'3 2.4
2017-Oct-17 10:17S 32°55' E 151°46'0 0.2
2017-Oct-17 07:28S 32°55' E 151°46'3 6.1
2017-Oct-17 07:01S 32°57' E 151°49'1 2.7
2017-Oct-17 06:30S 32°56' E 151°49'2 0.5
2017-Oct-17 02:36S 32°55' E 151°46'223.6
2017-Oct-17 02:31S 32°56' E 151°49'2 0.6
2017-Oct-16 22:14S 32°55' E 151°46'0 0.2
2017-Oct-16 20:48S 32°55' E 151°46'0 0.0
2017-Oct-16 17:06S 32°55' E 151°46'434.8
2017-Oct-16 16:59S 32°57' E 151°50'4 0.9
2017-Oct-16 12:28S 32°55' E 151°46'2 3.6
2017-Oct-16 12:01S 32°54' E 151°48'2 0.7
2017-Oct-16 09:19S 32°55' E 151°46'2 5.3
2017-Oct-16 09:01S 32°54' E 151°48'5 9.8
2017-Oct-16 08:29S 32°58' E 151°51'5 0.9
2017-Oct-16 02:33S 32°55' E 151°46'354.5
2017-Oct-16 02:31S 32°55' E 151°49'3 0.5
2017-Oct-15 21:43S 32°55' E 151°46'0 0.0
2017-Oct-15 20:54S 32°55' E 151°46'0 0.0
2017-Oct-15 17:46S 32°55' E 151°46'0 0.3
2017-Oct-15 17:30S 32°55' E 151°46'5 1.4
2017-Oct-15 13:59S 32°58' E 151°51'5 4.6
2017-Oct-15 12:54S 32°55' E 151°46'0 0.0
2017-Oct-15 09:48S 32°55' E 151°46'622.8
2017-Oct-15 09:31S 32°59' E 151°52'7 3.2
2017-Oct-15 07:27S 32°55' E 151°46'510.9
2017-Oct-15 06:59S 32°58' E 151°51'5 1.9
2017-Oct-15 04:20S 32°55' E 151°46'515.1
2017-Oct-15 04:00S 32°58' E 151°51'5 1.4
2017-Oct-15 00:19S 32°55' E 151°46'0 0.0
2017-Oct-14 21:17S 32°55' E 151°46'0 0.5
2017-Oct-14 20:42S 32°55' E 151°47'315.6
2017-Oct-14 20:31S 32°56' E 151°50'3 0.4
2017-Oct-14 12:57S 32°55' E 151°46'2 3.6
2017-Oct-14 12:31S 32°55' E 151°48'2 0.3
2017-Oct-14 07:47S 32°55' E 151°46'0 0.1
2017-Oct-14 07:07S 32°55' E 151°46'217.4
2017-Oct-14 07:00S 32°55' E 151°49'2 0.8
2017-Oct-14 04:06S 32°55' E 151°46'218.1
2017-Oct-14 03:58S 32°55' E 151°49'2 0.4
2017-Oct-13 22:49S 32°55' E 151°46'0 0.5
2017-Oct-13 22:20S 32°55' E 151°47'0 0.0
2017-Oct-13 17:52S 32°55' E 151°47'0 0.0
2017-Oct-13 10:15S 32°55' E 151°46'0 1.6
2017-Oct-13 10:01S 32°55' E 151°46'1 0.1
2017-Oct-13 06:01S 32°55' E 151°46'179.9
2017-Oct-13 06:00S 32°54' E 151°46'2 4.5
2017-Oct-13 05:30S 32°55' E 151°49'2 0.8
2017-Oct-13 02:57S 32°55' E 151°46'0 0.2
2017-Oct-13 01:51S 32°55' E 151°46'2 2.5
2017-Oct-13 00:50S 32°55' E 151°49'3 7.9
2017-Oct-13 00:30S 32°57' E 151°50'2 3.7
2017-Oct-12 23:57S 32°55' E 151°49'2 1.0
2017-Oct-12 21:54S 32°55' E 151°46'0 0.1
2017-Oct-12 15:10S 32°55' E 151°46'214.2
2017-Oct-12 15:01S 32°55' E 151°49'2 0.6
2017-Oct-12 11:45S 32°55' E 151°46'313.6
2017-Oct-12 11:31S 32°56' E 151°50'3 0.6
2017-Oct-12 06:38S 32°55' E 151°47'215.6
2017-Oct-12 06:31S 32°56' E 151°49'2 0.7
2017-Oct-12 03:44S 32°55' E 151°47'2 8.0
2017-Oct-12 03:30S 32°54' E 151°45'  
Track history (hours):
 
Tides and Currents Weather Stations Pressure Air Temp Water Temp Dewpoint Dewpoint Depression Visibility Wind Speed Wind Dir Waves Ship Positions

Vh-npc

Last reported at 2017-Oct-22 00:55 UTC. Time now 2017-Oct-22 06:40 UTC.
Position S 32°55' E 151°46'.

Length 10 m.

Type: Pilot. MMSI: 111503020.

Date/timePositionNaut miles runAvg speedWind from/ knotsBaromVisibWave heightAir tempDewpointWater temp
2017-Oct-22 00:55S 32°55' E 151°46'0 0.0
2017-Oct-21 18:18S 32°55' E 151°47'0 0.0
2017-Oct-21 17:05S 32°55' E 151°47'452.9
2017-Oct-21 17:01S 32°57' E 151°51'4 0.7
2017-Oct-21 11:03S 32°55' E 151°47'249.1
2017-Oct-21 11:01S 32°55' E 151°49'2 0.8
2017-Oct-21 08:02S 32°55' E 151°46'267.5
2017-Oct-21 08:01S 32°53' E 151°47'3 4.9
2017-Oct-21 07:28S 32°55' E 151°49'2 0.5
2017-Oct-21 02:58S 32°55' E 151°46'0 0.0
2017-Oct-20 23:26S 32°55' E 151°47'0 0.1
2017-Oct-20 20:00S 32°55' E 151°46'0 0.0
2017-Oct-20 02:02S 32°55' E 151°46'263.3
2017-Oct-20 02:01S 32°54' E 151°47'2 1.2
2017-Oct-20 00:34S 32°55' E 151°46'350.8
2017-Oct-20 00:31S 32°56' E 151°50'3 3.1
2017-Oct-19 23:34S 32°55' E 151°46'358.4
2017-Oct-19 23:31S 32°56' E 151°50'3 0.7
2017-Oct-19 19:03S 32°55' E 151°47'238.3
2017-Oct-19 19:01S 32°54' E 151°48'2 0.5
2017-Oct-19 15:21S 32°55' E 151°46'0 0.1
2017-Oct-19 14:06S 32°55' E 151°46'536.1
2017-Oct-19 13:57S 32°58' E 151°51'5 1.6
2017-Oct-19 10:40S 32°55' E 151°46'635.4
2017-Oct-19 10:30S 32°59' E 151°51'5 1.8
2017-Oct-19 07:28S 32°55' E 151°46'1 1.0
2017-Oct-19 06:57S 32°55' E 151°46'1 0.1
2017-Oct-18 19:15S 32°55' E 151°46'415.1
2017-Oct-18 19:01S 32°58' E 151°49'4 2.4
2017-Oct-18 17:22S 32°55' E 151°46'0 0.0
2017-Oct-18 16:10S 32°55' E 151°46'1063.0
2017-Oct-18 16:01S 32°53' E 151°58'917.9
2017-Oct-18 15:31S 32°57' E 151°48'2 0.4
2017-Oct-18 09:33S 32°55' E 151°46'244.9
2017-Oct-18 09:31S 32°54' E 151°49'3 6.8
2017-Oct-18 09:01S 32°57' E 151°51'4 0.8
2017-Oct-18 03:07S 32°55' E 151°46'218.5
2017-Oct-18 03:00S 32°55' E 151°49'2 0.6
2017-Oct-17 23:30S 32°55' E 151°46'4 7.9
2017-Oct-17 23:01S 32°57' E 151°50'4 0.7
2017-Oct-17 17:08S 32°55' E 151°46'435.0
2017-Oct-17 17:00S 32°57' E 151°51'5 0.9
2017-Oct-17 12:00S 32°55' E 151°46'3 6.4
2017-Oct-17 11:30S 32°57' E 151°48'3 2.4
2017-Oct-17 10:17S 32°55' E 151°46'0 0.2
2017-Oct-17 07:28S 32°55' E 151°46'3 6.1
2017-Oct-17 07:01S 32°57' E 151°49'1 2.7
2017-Oct-17 06:30S 32°56' E 151°49'2 0.5
2017-Oct-17 02:36S 32°55' E 151°46'223.6
2017-Oct-17 02:31S 32°56' E 151°49'2 0.6
2017-Oct-16 22:14S 32°55' E 151°46'0 0.2
2017-Oct-16 20:48S 32°55' E 151°46'0 0.0
2017-Oct-16 17:06S 32°55' E 151°46'434.8
2017-Oct-16 16:59S 32°57' E 151°50'4 0.9
2017-Oct-16 12:28S 32°55' E 151°46'2 3.6
2017-Oct-16 12:01S 32°54' E 151°48'2 0.7
2017-Oct-16 09:19S 32°55' E 151°46'2 5.3
2017-Oct-16 09:01S 32°54' E 151°48'5 9.8
2017-Oct-16 08:29S 32°58' E 151°51'5 0.9
2017-Oct-16 02:33S 32°55' E 151°46'354.5
2017-Oct-16 02:31S 32°55' E 151°49'3 0.5
2017-Oct-15 21:43S 32°55' E 151°46'0 0.0
2017-Oct-15 20:54S 32°55' E 151°46'0 0.0
2017-Oct-15 17:46S 32°55' E 151°46'0 0.3
2017-Oct-15 17:30S 32°55' E 151°46'5 1.4
2017-Oct-15 13:59S 32°58' E 151°51'5 4.6
2017-Oct-15 12:54S 32°55' E 151°46'0 0.0
2017-Oct-15 09:48S 32°55' E 151°46'622.8
2017-Oct-15 09:31S 32°59' E 151°52'7 3.2
2017-Oct-15 07:27S 32°55' E 151°46'510.9
2017-Oct-15 06:59S 32°58' E 151°51'5 1.9
2017-Oct-15 04:20S 32°55' E 151°46'515.1
2017-Oct-15 04:00S 32°58' E 151°51'5 1.4
2017-Oct-15 00:19S 32°55' E 151°46'0 0.0
2017-Oct-14 21:17S 32°55' E 151°46'0 0.5
2017-Oct-14 20:42S 32°55' E 151°47'315.6
2017-Oct-14 20:31S 32°56' E 151°50'3 0.4
2017-Oct-14 12:57S 32°55' E 151°46'2 3.6
2017-Oct-14 12:31S 32°55' E 151°48'2 0.3
2017-Oct-14 07:47S 32°55' E 151°46'0 0.1
2017-Oct-14 07:07S 32°55' E 151°46'217.4
2017-Oct-14 07:00S 32°55' E 151°49'2 0.8
2017-Oct-14 04:06S 32°55' E 151°46'218.1
2017-Oct-14 03:58S 32°55' E 151°49'2 0.4
2017-Oct-13 22:49S 32°55' E 151°46'0 0.5
2017-Oct-13 22:20S 32°55' E 151°47'0 0.0
2017-Oct-13 17:52S 32°55' E 151°47'0 0.0
2017-Oct-13 10:15S 32°55' E 151°46'0 1.6
2017-Oct-13 10:01S 32°55' E 151°46'1 0.1
2017-Oct-13 06:01S 32°55' E 151°46'179.9
2017-Oct-13 06:00S 32°54' E 151°46'2 4.5
2017-Oct-13 05:30S 32°55' E 151°49'2 0.8
2017-Oct-13 02:57S 32°55' E 151°46'0 0.2
2017-Oct-13 01:51S 32°55' E 151°46'2 2.5
2017-Oct-13 00:50S 32°55' E 151°49'3 7.9
2017-Oct-13 00:30S 32°57' E 151°50'2 3.7
2017-Oct-12 23:57S 32°55' E 151°49'2 1.0
2017-Oct-12 21:54S 32°55' E 151°46'0 0.1
2017-Oct-12 15:10S 32°55' E 151°46'214.2
2017-Oct-12 15:01S 32°55' E 151°49'2 0.6
2017-Oct-12 11:45S 32°55' E 151°46'313.6
2017-Oct-12 11:31S 32°56' E 151°50'3 0.6
2017-Oct-12 06:38S 32°55' E 151°47'215.6
2017-Oct-12 06:31S 32°56' E 151°49'2 0.7
2017-Oct-12 03:44S 32°55' E 151°47'2 8.0
2017-Oct-12 03:30S 32°54' E 151°45'  

Dump ship's entire track history